sensor_id;sensor_type;location;lat;lon;timestamp;temperature;humidity
20672;DHT22;10495;50.922;4.760;2023-02-28T00:00:48;1.00;71.80
20672;DHT22;10495;50.922;4.760;2023-02-28T00:03:14;1.10;71.50
20672;DHT22;10495;50.922;4.760;2023-02-28T00:05:40;1.10;71.20
20672;DHT22;10495;50.922;4.760;2023-02-28T00:08:07;1.00;71.40
20672;DHT22;10495;50.922;4.760;2023-02-28T00:10:33;1.10;71.40
20672;DHT22;10495;50.922;4.760;2023-02-28T00:13:04;1.00;71.60
20672;DHT22;10495;50.922;4.760;2023-02-28T00:15:31;1.00;71.50
20672;DHT22;10495;50.922;4.760;2023-02-28T00:17:57;1.00;71.80
20672;DHT22;10495;50.922;4.760;2023-02-28T00:20:23;0.90;71.80
20672;DHT22;10495;50.922;4.760;2023-02-28T00:22:51;0.90;72.50
20672;DHT22;10495;50.922;4.760;2023-02-28T00:25:23;0.90;72.70
20672;DHT22;10495;50.922;4.760;2023-02-28T00:27:49;0.90;71.70
20672;DHT22;10495;50.922;4.760;2023-02-28T00:30:17;0.90;71.80
20672;DHT22;10495;50.922;4.760;2023-02-28T00:32:44;0.90;72.10
20672;DHT22;10495;50.922;4.760;2023-02-28T00:35:10;0.90;71.80
20672;DHT22;10495;50.922;4.760;2023-02-28T00:37:36;0.90;71.60
20672;DHT22;10495;50.922;4.760;2023-02-28T00:40:02;0.80;72.30
20672;DHT22;10495;50.922;4.760;2023-02-28T00:42:30;0.80;71.90
20672;DHT22;10495;50.922;4.760;2023-02-28T00:44:55;0.80;72.30
20672;DHT22;10495;50.922;4.760;2023-02-28T00:47:21;0.80;72.30
20672;DHT22;10495;50.922;4.760;2023-02-28T00:49:47;0.80;72.30
20672;DHT22;10495;50.922;4.760;2023-02-28T00:52:12;0.80;72.10
20672;DHT22;10495;50.922;4.760;2023-02-28T00:54:38;0.70;71.70
20672;DHT22;10495;50.922;4.760;2023-02-28T00:57:03;0.70;71.80
20672;DHT22;10495;50.922;4.760;2023-02-28T00:59:29;0.70;72.40
20672;DHT22;10495;50.922;4.760;2023-02-28T01:01:55;0.60;72.00
20672;DHT22;10495;50.922;4.760;2023-02-28T01:04:20;0.60;71.80
20672;DHT22;10495;50.922;4.760;2023-02-28T01:06:46;0.60;72.10
20672;DHT22;10495;50.922;4.760;2023-02-28T01:09:11;0.60;72.30
20672;DHT22;10495;50.922;4.760;2023-02-28T01:11:37;0.60;72.60
20672;DHT22;10495;50.922;4.760;2023-02-28T01:14:03;0.50;72.30
20672;DHT22;10495;50.922;4.760;2023-02-28T01:16:29;0.50;72.50
20672;DHT22;10495;50.922;4.760;2023-02-28T01:18:55;0.50;72.60
20672;DHT22;10495;50.922;4.760;2023-02-28T01:21:21;0.50;72.30
20672;DHT22;10495;50.922;4.760;2023-02-28T01:23:47;0.40;72.20
20672;DHT22;10495;50.922;4.760;2023-02-28T01:26:21;0.40;72.40
20672;DHT22;10495;50.922;4.760;2023-02-28T01:28:48;0.30;72.60
20672;DHT22;10495;50.922;4.760;2023-02-28T01:31:15;0.30;72.70
20672;DHT22;10495;50.922;4.760;2023-02-28T01:33:41;0.20;73.50
20672;DHT22;10495;50.922;4.760;2023-02-28T01:36:14;0.30;73.20
20672;DHT22;10495;50.922;4.760;2023-02-28T01:38:40;0.30;72.90
20672;DHT22;10495;50.922;4.760;2023-02-28T01:41:07;0.20;73.20
20672;DHT22;10495;50.922;4.760;2023-02-28T01:43:54;0.20;73.70
20672;DHT22;10495;50.922;4.760;2023-02-28T01:46:20;0.20;73.10
20672;DHT22;10495;50.922;4.760;2023-02-28T01:49:00;0.10;73.30
20672;DHT22;10495;50.922;4.760;2023-02-28T01:51:43;0.20;73.60
20672;DHT22;10495;50.922;4.760;2023-02-28T01:54:20;0.10;73.80
20672;DHT22;10495;50.922;4.760;2023-02-28T01:56:51;0.10;74.20
20672;DHT22;10495;50.922;4.760;2023-02-28T01:59:35;0.10;74.40
20672;DHT22;10495;50.922;4.760;2023-02-28T02:02:02;0.10;74.60
20672;DHT22;10495;50.922;4.760;2023-02-28T02:04:34;0.10;74.50
20672;DHT22;10495;50.922;4.760;2023-02-28T02:07:02;0.00;74.30
20672;DHT22;10495;50.922;4.760;2023-02-28T02:09:28;0.10;74.20
20672;DHT22;10495;50.922;4.760;2023-02-28T02:11:55;0.10;74.20
20672;DHT22;10495;50.922;4.760;2023-02-28T02:17:28;0.10;74.80
20672;DHT22;10495;50.922;4.760;2023-02-28T02:23:07;0.00;74.90
20672;DHT22;10495;50.922;4.760;2023-02-28T02:25:54;0.00;74.40
20672;DHT22;10495;50.922;4.760;2023-02-28T02:31:20;0.00;74.60
20672;DHT22;10495;50.922;4.760;2023-02-28T02:37:03;-0.10;74.50
20672;DHT22;10495;50.922;4.760;2023-02-28T02:39:47;-0.20;74.60
20672;DHT22;10495;50.922;4.760;2023-02-28T02:42:20;-0.20;74.80
20672;DHT22;10495;50.922;4.760;2023-02-28T02:44:58;-0.20;74.80
20672;DHT22;10495;50.922;4.760;2023-02-28T02:47:29;-0.20;74.80
20672;DHT22;10495;50.922;4.760;2023-02-28T02:49:57;-0.20;74.70
20672;DHT22;10495;50.922;4.760;2023-02-28T02:52:30;-0.30;74.80
20672;DHT22;10495;50.922;4.760;2023-02-28T02:54:59;-0.30;74.80
20672;DHT22;10495;50.922;4.760;2023-02-28T02:57:35;-0.30;75.10
20672;DHT22;10495;50.922;4.760;2023-02-28T03:00:04;-0.30;75.20
20672;DHT22;10495;50.922;4.760;2023-02-28T03:02:34;-0.30;74.90
20672;DHT22;10495;50.922;4.760;2023-02-28T03:05:08;-0.30;75.30
20672;DHT22;10495;50.922;4.760;2023-02-28T03:07:37;-0.30;75.20
20672;DHT22;10495;50.922;4.760;2023-02-28T03:10:25;-0.40;75.10
20672;DHT22;10495;50.922;4.760;2023-02-28T03:12:55;-0.40;75.20
20672;DHT22;10495;50.922;4.760;2023-02-28T03:15:27;-0.40;75.50
20672;DHT22;10495;50.922;4.760;2023-02-28T03:18:08;-0.40;75.50
20672;DHT22;10495;50.922;4.760;2023-02-28T03:20:56;-0.50;75.50
20672;DHT22;10495;50.922;4.760;2023-02-28T03:23:41;-0.40;75.50
20672;DHT22;10495;50.922;4.760;2023-02-28T03:26:18;-0.50;75.70
20672;DHT22;10495;50.922;4.760;2023-02-28T03:36:41;-0.50;75.70
20672;DHT22;10495;50.922;4.760;2023-02-28T03:39:17;-0.50;75.80
20672;DHT22;10495;50.922;4.760;2023-02-28T03:41:50;-0.50;76.10
20672;DHT22;10495;50.922;4.760;2023-02-28T03:44:21;-0.50;76.10
20672;DHT22;10495;50.922;4.760;2023-02-28T03:47:17;-0.50;75.90
20672;DHT22;10495;50.922;4.760;2023-02-28T03:52:27;-0.60;76.20
20672;DHT22;10495;50.922;4.760;2023-02-28T03:54:57;-0.60;76.30
20672;DHT22;10495;50.922;4.760;2023-02-28T03:57:59;-0.60;76.40
20672;DHT22;10495;50.922;4.760;2023-02-28T04:00:27;-0.70;76.80
20672;DHT22;10495;50.922;4.760;2023-02-28T04:02:54;-0.70;77.00
20672;DHT22;10495;50.922;4.760;2023-02-28T04:05:21;-0.70;77.30
20672;DHT22;10495;50.922;4.760;2023-02-28T04:07:47;-0.60;77.80
20672;DHT22;10495;50.922;4.760;2023-02-28T04:10:14;-0.50;78.10
20672;DHT22;10495;50.922;4.760;2023-02-28T04:12:40;-0.50;77.90
20672;DHT22;10495;50.922;4.760;2023-02-28T04:15:06;-0.40;77.60
20672;DHT22;10495;50.922;4.760;2023-02-28T04:17:32;-0.30;77.80
20672;DHT22;10495;50.922;4.760;2023-02-28T04:19:58;-0.30;78.30
20672;DHT22;10495;50.922;4.760;2023-02-28T04:22:23;-0.20;78.70
20672;DHT22;10495;50.922;4.760;2023-02-28T04:24:52;-0.20;78.70
20672;DHT22;10495;50.922;4.760;2023-02-28T04:27:20;-0.10;78.70
20672;DHT22;10495;50.922;4.760;2023-02-28T04:29:46;-0.10;78.70
20672;DHT22;10495;50.922;4.760;2023-02-28T04:32:11;-0.10;78.50
20672;DHT22;10495;50.922;4.760;2023-02-28T04:34:37;0.00;78.40
20672;DHT22;10495;50.922;4.760;2023-02-28T04:37:04;0.00;78.40
20672;DHT22;10495;50.922;4.760;2023-02-28T04:39:29;-0.10;78.20
20672;DHT22;10495;50.922;4.760;2023-02-28T04:41:55;-0.10;78.10
20672;DHT22;10495;50.922;4.760;2023-02-28T04:44:21;-0.10;78.00
20672;DHT22;10495;50.922;4.760;2023-02-28T04:46:48;-0.10;78.00
20672;DHT22;10495;50.922;4.760;2023-02-28T04:49:14;-0.20;78.00
20672;DHT22;10495;50.922;4.760;2023-02-28T04:51:41;-0.20;77.90
20672;DHT22;10495;50.922;4.760;2023-02-28T04:54:07;-0.30;78.10
20672;DHT22;10495;50.922;4.760;2023-02-28T04:56:33;-0.30;78.10
20672;DHT22;10495;50.922;4.760;2023-02-28T04:58:59;-0.20;78.00
20672;DHT22;10495;50.922;4.760;2023-02-28T05:01:27;-0.20;78.10
20672;DHT22;10495;50.922;4.760;2023-02-28T05:03:55;-0.20;78.00
20672;DHT22;10495;50.922;4.760;2023-02-28T05:06:23;-0.20;77.60
20672;DHT22;10495;50.922;4.760;2023-02-28T05:08:49;-0.20;77.90
20672;DHT22;10495;50.922;4.760;2023-02-28T05:11:24;-0.30;78.20
20672;DHT22;10495;50.922;4.760;2023-02-28T05:13:50;-0.30;78.10
20672;DHT22;10495;50.922;4.760;2023-02-28T05:16:17;-0.30;78.30
20672;DHT22;10495;50.922;4.760;2023-02-28T05:18:43;-0.20;78.30
20672;DHT22;10495;50.922;4.760;2023-02-28T05:21:27;-0.20;78.50
20672;DHT22;10495;50.922;4.760;2023-02-28T05:23:55;-0.20;78.60
20672;DHT22;10495;50.922;4.760;2023-02-28T05:26:21;-0.20;78.50
20672;DHT22;10495;50.922;4.760;2023-02-28T05:28:47;-0.20;78.70
20672;DHT22;10495;50.922;4.760;2023-02-28T05:31:13;-0.30;79.00
20672;DHT22;10495;50.922;4.760;2023-02-28T05:33:39;-0.30;79.00
20672;DHT22;10495;50.922;4.760;2023-02-28T05:36:05;-0.30;79.00
20672;DHT22;10495;50.922;4.760;2023-02-28T05:38:31;-0.20;78.90
20672;DHT22;10495;50.922;4.760;2023-02-28T05:40:56;-0.20;79.70
20672;DHT22;10495;50.922;4.760;2023-02-28T05:43:22;-0.30;79.90
20672;DHT22;10495;50.922;4.760;2023-02-28T05:45:48;-0.20;80.00
20672;DHT22;10495;50.922;4.760;2023-02-28T05:48:14;-0.20;79.60
20672;DHT22;10495;50.922;4.760;2023-02-28T05:50:39;-0.20;80.10
20672;DHT22;10495;50.922;4.760;2023-02-28T05:53:06;-0.10;79.90
20672;DHT22;10495;50.922;4.760;2023-02-28T05:55:31;0.00;79.90
20672;DHT22;10495;50.922;4.760;2023-02-28T05:57:57;0.00;79.70
20672;DHT22;10495;50.922;4.760;2023-02-28T06:00:23;0.00;79.40
20672;DHT22;10495;50.922;4.760;2023-02-28T06:02:49;0.10;79.30
20672;DHT22;10495;50.922;4.760;2023-02-28T06:05:16;0.10;79.40
20672;DHT22;10495;50.922;4.760;2023-02-28T06:07:42;0.10;78.70
20672;DHT22;10495;50.922;4.760;2023-02-28T06:10:09;0.10;78.90
20672;DHT22;10495;50.922;4.760;2023-02-28T06:12:36;0.10;79.00
20672;DHT22;10495;50.922;4.760;2023-02-28T06:15:02;0.20;78.80
20672;DHT22;10495;50.922;4.760;2023-02-28T06:17:28;0.10;78.60
20672;DHT22;10495;50.922;4.760;2023-02-28T06:19:53;0.10;78.60
20672;DHT22;10495;50.922;4.760;2023-02-28T06:22:19;0.10;78.60
20672;DHT22;10495;50.922;4.760;2023-02-28T06:24:44;0.00;78.60
20672;DHT22;10495;50.922;4.760;2023-02-28T06:27:10;0.00;78.60
20672;DHT22;10495;50.922;4.760;2023-02-28T06:29:36;0.10;78.80
20672;DHT22;10495;50.922;4.760;2023-02-28T06:32:05;0.00;78.70
20672;DHT22;10495;50.922;4.760;2023-02-28T06:34:30;0.00;78.60
20672;DHT22;10495;50.922;4.760;2023-02-28T06:36:56;0.00;79.10
20672;DHT22;10495;50.922;4.760;2023-02-28T06:39:22;0.00;79.40
20672;DHT22;10495;50.922;4.760;2023-02-28T06:41:47;0.10;79.10
20672;DHT22;10495;50.922;4.760;2023-02-28T06:44:16;0.10;79.40
20672;DHT22;10495;50.922;4.760;2023-02-28T06:46:44;0.20;79.30
20672;DHT22;10495;50.922;4.760;2023-02-28T06:49:10;0.20;79.60
20672;DHT22;10495;50.922;4.760;2023-02-28T06:51:38;0.20;79.40
20672;DHT22;10495;50.922;4.760;2023-02-28T06:54:05;0.20;79.30
20672;DHT22;10495;50.922;4.760;2023-02-28T06:56:30;0.20;79.00
20672;DHT22;10495;50.922;4.760;2023-02-28T06:58:56;0.30;79.10
20672;DHT22;10495;50.922;4.760;2023-02-28T07:01:22;0.30;79.00
20672;DHT22;10495;50.922;4.760;2023-02-28T07:03:49;0.30;78.80
20672;DHT22;10495;50.922;4.760;2023-02-28T07:06:21;0.30;78.70
20672;DHT22;10495;50.922;4.760;2023-02-28T07:08:49;0.30;78.80
20672;DHT22;10495;50.922;4.760;2023-02-28T07:11:15;0.30;78.70
20672;DHT22;10495;50.922;4.760;2023-02-28T07:13:41;0.40;78.90
20672;DHT22;10495;50.922;4.760;2023-02-28T07:16:12;0.40;78.80
20672;DHT22;10495;50.922;4.760;2023-02-28T07:18:37;0.40;79.00
20672;DHT22;10495;50.922;4.760;2023-02-28T07:21:09;0.40;79.50
20672;DHT22;10495;50.922;4.760;2023-02-28T07:23:35;0.70;78.80
20672;DHT22;10495;50.922;4.760;2023-02-28T07:26:01;0.80;78.10
20672;DHT22;10495;50.922;4.760;2023-02-28T07:28:26;0.90;78.40
20672;DHT22;10495;50.922;4.760;2023-02-28T07:30:52;0.80;78.60
20672;DHT22;10495;50.922;4.760;2023-02-28T07:33:18;0.90;78.90
20672;DHT22;10495;50.922;4.760;2023-02-28T07:35:44;0.90;78.80
20672;DHT22;10495;50.922;4.760;2023-02-28T07:38:09;1.10;78.50
20672;DHT22;10495;50.922;4.760;2023-02-28T07:40:36;1.20;78.70
20672;DHT22;10495;50.922;4.760;2023-02-28T07:43:02;1.30;78.90
20672;DHT22;10495;50.922;4.760;2023-02-28T07:45:29;1.70;79.00
20672;DHT22;10495;50.922;4.760;2023-02-28T07:47:55;2.40;78.30
20672;DHT22;10495;50.922;4.760;2023-02-28T07:50:21;2.90;76.90
20672;DHT22;10495;50.922;4.760;2023-02-28T07:52:47;3.60;75.90
20672;DHT22;10495;50.922;4.760;2023-02-28T07:55:13;4.20;74.70
20672;DHT22;10495;50.922;4.760;2023-02-28T07:57:40;4.90;73.00
20672;DHT22;10495;50.922;4.760;2023-02-28T08:00:08;5.60;70.30
20672;DHT22;10495;50.922;4.760;2023-02-28T08:02:37;6.00;70.00
20672;DHT22;10495;50.922;4.760;2023-02-28T08:05:04;6.40;66.80
20672;DHT22;10495;50.922;4.760;2023-02-28T08:07:29;6.40;64.50
20672;DHT22;10495;50.922;4.760;2023-02-28T08:09:55;6.50;63.10
20672;DHT22;10495;50.922;4.760;2023-02-28T08:12:21;7.00;59.90
20672;DHT22;10495;50.922;4.760;2023-02-28T08:14:46;7.30;60.80
20672;DHT22;10495;50.922;4.760;2023-02-28T08:17:12;7.60;58.00
20672;DHT22;10495;50.922;4.760;2023-02-28T08:19:38;7.70;57.80
20672;DHT22;10495;50.922;4.760;2023-02-28T08:22:03;7.50;57.70
20672;DHT22;10495;50.922;4.760;2023-02-28T08:24:29;7.60;56.80
20672;DHT22;10495;50.922;4.760;2023-02-28T08:26:56;7.20;56.80
20672;DHT22;10495;50.922;4.760;2023-02-28T08:29:22;6.90;57.10
20672;DHT22;10495;50.922;4.760;2023-02-28T08:31:47;6.80;57.20
20672;DHT22;10495;50.922;4.760;2023-02-28T08:34:15;6.90;57.00
20672;DHT22;10495;50.922;4.760;2023-02-28T08:36:41;6.60;56.90
20672;DHT22;10495;50.922;4.760;2023-02-28T08:39:08;6.40;57.10
20672;DHT22;10495;50.922;4.760;2023-02-28T08:41:34;6.30;56.90
20672;DHT22;10495;50.922;4.760;2023-02-28T08:43:59;6.60;56.50
20672;DHT22;10495;50.922;4.760;2023-02-28T08:46:25;6.50;56.80
20672;DHT22;10495;50.922;4.760;2023-02-28T08:48:53;6.50;57.20
20672;DHT22;10495;50.922;4.760;2023-02-28T08:51:20;6.70;56.80
20672;DHT22;10495;50.922;4.760;2023-02-28T08:53:57;7.00;56.60
20672;DHT22;10495;50.922;4.760;2023-02-28T08:56:23;7.10;56.00
20672;DHT22;10495;50.922;4.760;2023-02-28T08:58:50;7.50;55.40
20672;DHT22;10495;50.922;4.760;2023-02-28T09:01:18;7.60;55.10
20672;DHT22;10495;50.922;4.760;2023-02-28T09:03:44;7.50;55.40
20672;DHT22;10495;50.922;4.760;2023-02-28T09:06:12;7.70;55.40
20672;DHT22;10495;50.922;4.760;2023-02-28T09:08:39;7.60;54.50
20672;DHT22;10495;50.922;4.760;2023-02-28T09:11:06;7.90;54.10
20672;DHT22;10495;50.922;4.760;2023-02-28T09:13:32;7.70;53.90
20672;DHT22;10495;50.922;4.760;2023-02-28T09:15:59;7.60;53.90
20672;DHT22;10495;50.922;4.760;2023-02-28T09:18:26;7.80;54.00
20672;DHT22;10495;50.922;4.760;2023-02-28T09:20:52;7.80;54.00
20672;DHT22;10495;50.922;4.760;2023-02-28T09:23:17;8.20;52.10
20672;DHT22;10495;50.922;4.760;2023-02-28T09:25:51;8.30;52.10
20672;DHT22;10495;50.922;4.760;2023-02-28T09:28:18;8.30;51.70
20672;DHT22;10495;50.922;4.760;2023-02-28T09:30:46;8.30;51.40
20672;DHT22;10495;50.922;4.760;2023-02-28T09:33:13;8.40;51.10
20672;DHT22;10495;50.922;4.760;2023-02-28T09:35:39;8.30;51.00
20672;DHT22;10495;50.922;4.760;2023-02-28T09:38:04;8.00;50.60
20672;DHT22;10495;50.922;4.760;2023-02-28T09:40:31;8.20;50.70
20672;DHT22;10495;50.922;4.760;2023-02-28T09:42:58;8.20;50.50
20672;DHT22;10495;50.922;4.760;2023-02-28T09:45:31;8.20;50.60
20672;DHT22;10495;50.922;4.760;2023-02-28T09:48:10;8.10;50.30
20672;DHT22;10495;50.922;4.760;2023-02-28T09:50:38;7.90;50.50
20672;DHT22;10495;50.922;4.760;2023-02-28T09:53:19;7.90;50.80
20672;DHT22;10495;50.922;4.760;2023-02-28T09:56:04;7.60;49.40
20672;DHT22;10495;50.922;4.760;2023-02-28T10:01:06;7.80;48.60
20672;DHT22;10495;50.922;4.760;2023-02-28T10:03:55;7.70;49.00
20672;DHT22;10495;50.922;4.760;2023-02-28T10:06:28;7.40;48.70
20672;DHT22;10495;50.922;4.760;2023-02-28T10:11:40;7.60;48.40
20672;DHT22;10495;50.922;4.760;2023-02-28T10:14:18;7.30;49.10
20672;DHT22;10495;50.922;4.760;2023-02-28T10:16:49;6.60;49.60
20672;DHT22;10495;50.922;4.760;2023-02-28T10:19:40;6.40;49.80
20672;DHT22;10495;50.922;4.760;2023-02-28T10:22:13;6.20;49.80
20672;DHT22;10495;50.922;4.760;2023-02-28T10:24:45;6.00;49.90
20672;DHT22;10495;50.922;4.760;2023-02-28T10:27:17;5.90;50.10
20672;DHT22;10495;50.922;4.760;2023-02-28T10:29:48;5.70;49.40
20672;DHT22;10495;50.922;4.760;2023-02-28T10:32:17;5.60;49.80
20672;DHT22;10495;50.922;4.760;2023-02-28T10:34:44;5.80;50.10
20672;DHT22;10495;50.922;4.760;2023-02-28T10:37:11;5.80;50.20
20672;DHT22;10495;50.922;4.760;2023-02-28T10:39:41;6.00;49.90
20672;DHT22;10495;50.922;4.760;2023-02-28T10:44:44;6.10;49.80
20672;DHT22;10495;50.922;4.760;2023-02-28T10:47:16;6.00;49.60
20672;DHT22;10495;50.922;4.760;2023-02-28T10:49:48;6.30;49.30
20672;DHT22;10495;50.922;4.760;2023-02-28T10:52:36;5.90;49.60
20672;DHT22;10495;50.922;4.760;2023-02-28T10:55:35;6.10;49.20
20672;DHT22;10495;50.922;4.760;2023-02-28T10:58:01;5.80;49.80
20672;DHT22;10495;50.922;4.760;2023-02-28T11:00:33;5.90;50.00
20672;DHT22;10495;50.922;4.760;2023-02-28T11:02:59;6.00;49.60
20672;DHT22;10495;50.922;4.760;2023-02-28T11:05:30;6.00;49.50
20672;DHT22;10495;50.922;4.760;2023-02-28T11:08:11;5.80;49.70
20672;DHT22;10495;50.922;4.760;2023-02-28T11:10:38;5.40;49.00
20672;DHT22;10495;50.922;4.760;2023-02-28T11:13:04;5.50;49.70
20672;DHT22;10495;50.922;4.760;2023-02-28T11:15:32;5.70;49.50
20672;DHT22;10495;50.922;4.760;2023-02-28T11:18:34;6.10;48.70
20672;DHT22;10495;50.922;4.760;2023-02-28T11:21:03;6.30;48.00
20672;DHT22;10495;50.922;4.760;2023-02-28T11:23:31;6.40;47.30
20672;DHT22;10495;50.922;4.760;2023-02-28T11:26:00;6.30;47.80
20672;DHT22;10495;50.922;4.760;2023-02-28T11:28:29;6.40;47.30
20672;DHT22;10495;50.922;4.760;2023-02-28T11:33:51;6.30;47.50
20672;DHT22;10495;50.922;4.760;2023-02-28T11:36:29;6.40;47.10
20672;DHT22;10495;50.922;4.760;2023-02-28T11:38:59;6.50;46.70
20672;DHT22;10495;50.922;4.760;2023-02-28T11:46:47;6.30;46.80
20672;DHT22;10495;50.922;4.760;2023-02-28T11:52:22;6.40;46.50
20672;DHT22;10495;50.922;4.760;2023-02-28T11:55:04;6.10;46.80
20672;DHT22;10495;50.922;4.760;2023-02-28T12:00:57;6.00;47.30
20672;DHT22;10495;50.922;4.760;2023-02-28T12:03:43;6.30;46.70
20672;DHT22;10495;50.922;4.760;2023-02-28T12:06:38;6.50;47.00
20672;DHT22;10495;50.922;4.760;2023-02-28T12:17:32;6.40;46.80
20672;DHT22;10495;50.922;4.760;2023-02-28T12:23:26;6.60;46.50
20672;DHT22;10495;50.922;4.760;2023-02-28T12:28:14;6.20;46.60
20672;DHT22;10495;50.922;4.760;2023-02-28T12:30:51;6.00;46.50
20672;DHT22;10495;50.922;4.760;2023-02-28T12:33:22;6.30;46.20
20672;DHT22;10495;50.922;4.760;2023-02-28T12:35:54;6.40;46.30
20672;DHT22;10495;50.922;4.760;2023-02-28T12:38:27;6.50;46.10
20672;DHT22;10495;50.922;4.760;2023-02-28T12:40:56;6.60;45.90
20672;DHT22;10495;50.922;4.760;2023-02-28T12:43:27;6.50;46.60
20672;DHT22;10495;50.922;4.760;2023-02-28T12:46:09;6.50;46.10
20672;DHT22;10495;50.922;4.760;2023-02-28T12:48:43;6.20;46.10
20672;DHT22;10495;50.922;4.760;2023-02-28T12:51:10;6.20;46.00
20672;DHT22;10495;50.922;4.760;2023-02-28T12:56:35;6.20;46.30
20672;DHT22;10495;50.922;4.760;2023-02-28T13:09:40;6.50;46.30
20672;DHT22;10495;50.922;4.760;2023-02-28T13:12:14;6.40;45.80
20672;DHT22;10495;50.922;4.760;2023-02-28T13:14:40;6.30;46.40
20672;DHT22;10495;50.922;4.760;2023-02-28T13:19:37;6.00;45.80
20672;DHT22;10495;50.922;4.760;2023-02-28T13:22:03;6.10;46.30
20672;DHT22;10495;50.922;4.760;2023-02-28T13:24:44;6.20;46.50
20672;DHT22;10495;50.922;4.760;2023-02-28T13:29:42;6.40;46.20
20672;DHT22;10495;50.922;4.760;2023-02-28T13:34:35;6.70;46.20
20672;DHT22;10495;50.922;4.760;2023-02-28T13:39:49;6.60;45.80
20672;DHT22;10495;50.922;4.760;2023-02-28T13:47:29;6.60;46.10
20672;DHT22;10495;50.922;4.760;2023-02-28T13:50:18;6.60;46.40
20672;DHT22;10495;50.922;4.760;2023-02-28T13:53:13;6.70;46.10
20672;DHT22;10495;50.922;4.760;2023-02-28T13:58:56;6.80;46.00
20672;DHT22;10495;50.922;4.760;2023-02-28T14:01:37;7.00;46.00
20672;DHT22;10495;50.922;4.760;2023-02-28T14:06:59;6.30;46.90
20672;DHT22;10495;50.922;4.760;2023-02-28T14:09:38;6.20;46.40
20672;DHT22;10495;50.922;4.760;2023-02-28T14:17:55;6.40;47.00
20672;DHT22;10495;50.922;4.760;2023-02-28T14:20:23;6.40;46.80
20672;DHT22;10495;50.922;4.760;2023-02-28T14:23:04;6.10;47.70
20672;DHT22;10495;50.922;4.760;2023-02-28T14:28:43;6.50;47.00
20672;DHT22;10495;50.922;4.760;2023-02-28T14:31:15;6.60;47.20
20672;DHT22;10495;50.922;4.760;2023-02-28T14:34:05;6.40;47.10
20672;DHT22;10495;50.922;4.760;2023-02-28T14:36:40;6.60;47.40
20672;DHT22;10495;50.922;4.760;2023-02-28T14:39:15;6.70;47.10
20672;DHT22;10495;50.922;4.760;2023-02-28T14:41:42;6.60;47.40
20672;DHT22;10495;50.922;4.760;2023-02-28T14:46:41;6.40;47.40
20672;DHT22;10495;50.922;4.760;2023-02-28T14:49:13;6.50;47.00
20672;DHT22;10495;50.922;4.760;2023-02-28T14:51:40;6.60;47.10
20672;DHT22;10495;50.922;4.760;2023-02-28T14:54:06;6.60;47.60
20672;DHT22;10495;50.922;4.760;2023-02-28T14:56:37;6.70;47.10
20672;DHT22;10495;50.922;4.760;2023-02-28T14:59:04;6.70;47.00
20672;DHT22;10495;50.922;4.760;2023-02-28T15:01:30;6.60;47.40
20672;DHT22;10495;50.922;4.760;2023-02-28T15:04:04;6.60;47.40
20672;DHT22;10495;50.922;4.760;2023-02-28T15:06:31;6.60;47.60
20672;DHT22;10495;50.922;4.760;2023-02-28T15:09:17;6.40;47.40
20672;DHT22;10495;50.922;4.760;2023-02-28T15:11:48;6.80;47.40
20672;DHT22;10495;50.922;4.760;2023-02-28T15:14:18;7.20;46.70
20672;DHT22;10495;50.922;4.760;2023-02-28T15:16:48;6.90;47.30
20672;DHT22;10495;50.922;4.760;2023-02-28T15:19:27;7.00;46.80
20672;DHT22;10495;50.922;4.760;2023-02-28T15:22:25;7.10;46.60
20672;DHT22;10495;50.922;4.760;2023-02-28T15:24:54;7.00;47.00
20672;DHT22;10495;50.922;4.760;2023-02-28T15:27:29;6.80;47.10
20672;DHT22;10495;50.922;4.760;2023-02-28T15:30:08;7.00;47.20
20672;DHT22;10495;50.922;4.760;2023-02-28T15:32:39;6.80;47.10
20672;DHT22;10495;50.922;4.760;2023-02-28T15:35:40;6.60;47.50
20672;DHT22;10495;50.922;4.760;2023-02-28T15:41:03;6.60;48.00
20672;DHT22;10495;50.922;4.760;2023-02-28T15:43:36;6.60;47.50
20672;DHT22;10495;50.922;4.760;2023-02-28T15:46:04;6.50;47.20
20672;DHT22;10495;50.922;4.760;2023-02-28T15:48:37;6.40;47.60
20672;DHT22;10495;50.922;4.760;2023-02-28T15:51:09;6.40;47.40
20672;DHT22;10495;50.922;4.760;2023-02-28T15:56:27;6.30;47.60
20672;DHT22;10495;50.922;4.760;2023-02-28T15:58:57;6.50;47.60
20672;DHT22;10495;50.922;4.760;2023-02-28T16:01:34;6.50;47.90
20672;DHT22;10495;50.922;4.760;2023-02-28T16:04:06;6.70;47.40
20672;DHT22;10495;50.922;4.760;2023-02-28T16:06:45;6.60;47.30
20672;DHT22;10495;50.922;4.760;2023-02-28T16:09:15;6.30;47.60
20672;DHT22;10495;50.922;4.760;2023-02-28T16:11:49;6.40;47.80
20672;DHT22;10495;50.922;4.760;2023-02-28T16:14:24;6.50;48.00
20672;DHT22;10495;50.922;4.760;2023-02-28T16:16:54;6.40;48.20
20672;DHT22;10495;50.922;4.760;2023-02-28T16:19:21;6.70;47.80
20672;DHT22;10495;50.922;4.760;2023-02-28T16:21:47;6.70;47.20
20672;DHT22;10495;50.922;4.760;2023-02-28T16:24:14;6.60;47.70
20672;DHT22;10495;50.922;4.760;2023-02-28T16:26:45;6.70;47.60
20672;DHT22;10495;50.922;4.760;2023-02-28T16:29:23;6.60;47.60
20672;DHT22;10495;50.922;4.760;2023-02-28T16:31:50;6.40;47.40
20672;DHT22;10495;50.922;4.760;2023-02-28T16:34:15;6.30;47.50
20672;DHT22;10495;50.922;4.760;2023-02-28T16:36:41;6.20;47.60
20672;DHT22;10495;50.922;4.760;2023-02-28T16:39:06;6.30;47.50
20672;DHT22;10495;50.922;4.760;2023-02-28T16:41:34;6.60;47.30
20672;DHT22;10495;50.922;4.760;2023-02-28T16:43:59;6.60;47.40
20672;DHT22;10495;50.922;4.760;2023-02-28T16:46:34;6.50;47.50
20672;DHT22;10495;50.922;4.760;2023-02-28T16:49:00;6.50;47.70
20672;DHT22;10495;50.922;4.760;2023-02-28T16:51:26;6.60;47.70
20672;DHT22;10495;50.922;4.760;2023-02-28T16:53:52;6.60;47.80
20672;DHT22;10495;50.922;4.760;2023-02-28T16:56:22;6.60;48.10
20672;DHT22;10495;50.922;4.760;2023-02-28T16:58:50;6.60;47.90
20672;DHT22;10495;50.922;4.760;2023-02-28T17:01:16;6.60;47.90
20672;DHT22;10495;50.922;4.760;2023-02-28T17:03:48;6.60;47.80
20672;DHT22;10495;50.922;4.760;2023-02-28T17:06:22;6.80;48.20
20672;DHT22;10495;50.922;4.760;2023-02-28T17:08:50;6.50;48.10
20672;DHT22;10495;50.922;4.760;2023-02-28T17:11:16;6.30;48.30
20672;DHT22;10495;50.922;4.760;2023-02-28T17:13:42;6.30;48.20
20672;DHT22;10495;50.922;4.760;2023-02-28T17:16:28;6.50;48.00
20672;DHT22;10495;50.922;4.760;2023-02-28T17:18:57;6.60;47.80
20672;DHT22;10495;50.922;4.760;2023-02-28T17:21:23;6.40;47.90
20672;DHT22;10495;50.922;4.760;2023-02-28T17:23:49;6.40;47.90
20672;DHT22;10495;50.922;4.760;2023-02-28T17:26:18;6.20;48.30
20672;DHT22;10495;50.922;4.760;2023-02-28T17:28:48;5.90;48.50
20672;DHT22;10495;50.922;4.760;2023-02-28T17:31:14;5.90;48.50
20672;DHT22;10495;50.922;4.760;2023-02-28T17:33:40;5.60;48.80
20672;DHT22;10495;50.922;4.760;2023-02-28T17:36:06;5.70;48.80
20672;DHT22;10495;50.922;4.760;2023-02-28T17:38:35;5.70;48.80
20672;DHT22;10495;50.922;4.760;2023-02-28T17:41:01;5.70;48.70
20672;DHT22;10495;50.922;4.760;2023-02-28T17:43:27;5.70;48.80
20672;DHT22;10495;50.922;4.760;2023-02-28T17:45:55;5.90;48.60
20672;DHT22;10495;50.922;4.760;2023-02-28T17:48:21;5.90;48.50
20672;DHT22;10495;50.922;4.760;2023-02-28T17:50:46;5.80;48.70